sensor_id;sensor_type;location;lat;lon;timestamp;temperature;humidity
28075;DHT22;15385;51.088;6.572;2023-05-28T00:02:15;18.70;99.90
28075;DHT22;15385;51.088;6.572;2023-05-28T00:04:46;18.50;99.90
28075;DHT22;15385;51.088;6.572;2023-05-28T00:07:16;18.50;99.90
28075;DHT22;15385;51.088;6.572;2023-05-28T00:09:47;18.50;99.90
28075;DHT22;15385;51.088;6.572;2023-05-28T00:12:19;18.50;99.90
28075;DHT22;15385;51.088;6.572;2023-05-28T00:14:50;18.50;99.90
28075;DHT22;15385;51.088;6.572;2023-05-28T00:17:21;18.50;99.90
28075;DHT22;15385;51.088;6.572;2023-05-28T00:19:51;18.40;99.90
28075;DHT22;15385;51.088;6.572;2023-05-28T00:22:22;18.40;99.90
28075;DHT22;15385;51.088;6.572;2023-05-28T00:24:53;18.40;99.90
28075;DHT22;15385;51.088;6.572;2023-05-28T00:27:23;18.40;99.90
28075;DHT22;15385;51.088;6.572;2023-05-28T00:29:54;18.30;99.90
28075;DHT22;15385;51.088;6.572;2023-05-28T00:32:24;18.20;99.90
28075;DHT22;15385;51.088;6.572;2023-05-28T00:34:55;18.20;99.90
28075;DHT22;15385;51.088;6.572;2023-05-28T00:37:26;18.20;99.90
28075;DHT22;15385;51.088;6.572;2023-05-28T00:39:57;18.20;99.90
28075;DHT22;15385;51.088;6.572;2023-05-28T00:42:27;18.10;99.90
28075;DHT22;15385;51.088;6.572;2023-05-28T00:44:58;18.10;99.90
28075;DHT22;15385;51.088;6.572;2023-05-28T00:47:28;18.10;99.90
28075;DHT22;15385;51.088;6.572;2023-05-28T00:50:00;18.00;99.90
28075;DHT22;15385;51.088;6.572;2023-05-28T00:52:31;18.00;99.90
28075;DHT22;15385;51.088;6.572;2023-05-28T00:55:02;17.90;99.90
28075;DHT22;15385;51.088;6.572;2023-05-28T00:57:37;17.90;99.90
28075;DHT22;15385;51.088;6.572;2023-05-28T01:00:08;17.90;99.90
28075;DHT22;15385;51.088;6.572;2023-05-28T01:02:39;17.90;99.90
28075;DHT22;15385;51.088;6.572;2023-05-28T01:05:10;17.90;99.90
28075;DHT22;15385;51.088;6.572;2023-05-28T01:07:41;17.80;99.90
28075;DHT22;15385;51.088;6.572;2023-05-28T01:10:11;17.80;99.90
28075;DHT22;15385;51.088;6.572;2023-05-28T01:12:43;17.80;99.90
28075;DHT22;15385;51.088;6.572;2023-05-28T01:15:14;17.70;99.90
28075;DHT22;15385;51.088;6.572;2023-05-28T01:17:45;17.70;99.90
28075;DHT22;15385;51.088;6.572;2023-05-28T01:20:16;17.70;99.90
28075;DHT22;15385;51.088;6.572;2023-05-28T01:22:55;17.60;99.90
28075;DHT22;15385;51.088;6.572;2023-05-28T01:25:29;17.60;99.90
28075;DHT22;15385;51.088;6.572;2023-05-28T01:28:00;17.60;99.90
28075;DHT22;15385;51.088;6.572;2023-05-28T01:30:32;17.50;99.90
28075;DHT22;15385;51.088;6.572;2023-05-28T01:33:03;17.50;99.90
28075;DHT22;15385;51.088;6.572;2023-05-28T01:35:33;17.50;99.90
28075;DHT22;15385;51.088;6.572;2023-05-28T01:38:04;17.50;99.90
28075;DHT22;15385;51.088;6.572;2023-05-28T01:40:36;17.50;99.90
28075;DHT22;15385;51.088;6.572;2023-05-28T01:43:08;17.50;99.90
28075;DHT22;15385;51.088;6.572;2023-05-28T01:45:39;17.50;99.90
28075;DHT22;15385;51.088;6.572;2023-05-28T01:48:10;17.40;99.90
28075;DHT22;15385;51.088;6.572;2023-05-28T01:50:41;17.40;99.90
28075;DHT22;15385;51.088;6.572;2023-05-28T01:53:12;17.40;99.90
28075;DHT22;15385;51.088;6.572;2023-05-28T01:55:43;17.40;99.90
28075;DHT22;15385;51.088;6.572;2023-05-28T01:58:14;17.30;99.90
28075;DHT22;15385;51.088;6.572;2023-05-28T02:00:55;17.30;99.90
28075;DHT22;15385;51.088;6.572;2023-05-28T02:03:30;17.30;99.90
28075;DHT22;15385;51.088;6.572;2023-05-28T02:06:00;17.20;99.90
28075;DHT22;15385;51.088;6.572;2023-05-28T02:08:31;17.20;99.90
28075;DHT22;15385;51.088;6.572;2023-05-28T02:11:01;17.20;99.90
28075;DHT22;15385;51.088;6.572;2023-05-28T02:13:32;17.10;99.90
28075;DHT22;15385;51.088;6.572;2023-05-28T02:16:02;17.10;99.90
28075;DHT22;15385;51.088;6.572;2023-05-28T02:18:35;17.10;99.90
28075;DHT22;15385;51.088;6.572;2023-05-28T02:21:07;17.10;99.90
28075;DHT22;15385;51.088;6.572;2023-05-28T02:23:43;17.10;99.90
28075;DHT22;15385;51.088;6.572;2023-05-28T02:26:13;17.10;99.90
28075;DHT22;15385;51.088;6.572;2023-05-28T02:28:44;17.00;99.90
28075;DHT22;15385;51.088;6.572;2023-05-28T02:31:15;17.00;99.90
28075;DHT22;15385;51.088;6.572;2023-05-28T02:33:46;17.00;99.90
28075;DHT22;15385;51.088;6.572;2023-05-28T02:36:16;16.90;99.90
28075;DHT22;15385;51.088;6.572;2023-05-28T02:38:47;16.90;99.90
28075;DHT22;15385;51.088;6.572;2023-05-28T02:41:18;16.90;99.90
28075;DHT22;15385;51.088;6.572;2023-05-28T02:43:48;16.90;99.90
28075;DHT22;15385;51.088;6.572;2023-05-28T02:46:19;16.90;99.90
28075;DHT22;15385;51.088;6.572;2023-05-28T02:48:50;16.80;99.90
28075;DHT22;15385;51.088;6.572;2023-05-28T02:51:20;16.80;99.90
28075;DHT22;15385;51.088;6.572;2023-05-28T02:53:51;16.80;99.90
28075;DHT22;15385;51.088;6.572;2023-05-28T02:56:22;16.70;99.90
28075;DHT22;15385;51.088;6.572;2023-05-28T02:58:52;16.70;99.90
28075;DHT22;15385;51.088;6.572;2023-05-28T03:01:23;16.70;99.90
28075;DHT22;15385;51.088;6.572;2023-05-28T03:03:54;16.60;99.90
28075;DHT22;15385;51.088;6.572;2023-05-28T03:06:24;16.60;99.90
28075;DHT22;15385;51.088;6.572;2023-05-28T03:08:55;16.50;99.90
28075;DHT22;15385;51.088;6.572;2023-05-28T03:11:25;16.60;99.90
28075;DHT22;15385;51.088;6.572;2023-05-28T03:13:56;16.60;99.90
28075;DHT22;15385;51.088;6.572;2023-05-28T03:16:27;16.50;99.90
28075;DHT22;15385;51.088;6.572;2023-05-28T03:18:57;16.50;99.90
28075;DHT22;15385;51.088;6.572;2023-05-28T03:21:28;16.50;99.90
28075;DHT22;15385;51.088;6.572;2023-05-28T03:23:59;16.50;99.90
28075;DHT22;15385;51.088;6.572;2023-05-28T03:26:29;16.50;99.90
28075;DHT22;15385;51.088;6.572;2023-05-28T03:29:00;16.50;99.90
28075;DHT22;15385;51.088;6.572;2023-05-28T03:31:30;16.40;99.90
28075;DHT22;15385;51.088;6.572;2023-05-28T03:34:12;16.40;99.90
28075;DHT22;15385;51.088;6.572;2023-05-28T03:36:43;16.40;99.90
28075;DHT22;15385;51.088;6.572;2023-05-28T03:39:13;16.40;99.90
28075;DHT22;15385;51.088;6.572;2023-05-28T03:41:44;16.40;99.90
28075;DHT22;15385;51.088;6.572;2023-05-28T03:44:15;16.40;99.90
28075;DHT22;15385;51.088;6.572;2023-05-28T03:46:47;16.30;99.90
28075;DHT22;15385;51.088;6.572;2023-05-28T03:49:18;16.30;99.90
28075;DHT22;15385;51.088;6.572;2023-05-28T03:51:48;16.30;99.90
28075;DHT22;15385;51.088;6.572;2023-05-28T03:54:19;16.30;99.90
28075;DHT22;15385;51.088;6.572;2023-05-28T03:56:50;16.30;99.90
28075;DHT22;15385;51.088;6.572;2023-05-28T03:59:20;16.30;99.90
28075;DHT22;15385;51.088;6.572;2023-05-28T04:01:51;16.30;99.90
28075;DHT22;15385;51.088;6.572;2023-05-28T04:04:22;16.30;99.90
28075;DHT22;15385;51.088;6.572;2023-05-28T04:06:52;16.20;99.90
28075;DHT22;15385;51.088;6.572;2023-05-28T04:09:23;16.20;99.90
28075;DHT22;15385;51.088;6.572;2023-05-28T04:11:55;16.20;99.90
28075;DHT22;15385;51.088;6.572;2023-05-28T04:14:25;16.20;99.90
28075;DHT22;15385;51.088;6.572;2023-05-28T04:16:56;16.20;99.90
28075;DHT22;15385;51.088;6.572;2023-05-28T04:19:28;16.20;99.90
28075;DHT22;15385;51.088;6.572;2023-05-28T04:21:58;16.20;99.90
28075;DHT22;15385;51.088;6.572;2023-05-28T04:24:29;16.10;99.90
28075;DHT22;15385;51.088;6.572;2023-05-28T04:26:59;16.10;99.90
28075;DHT22;15385;51.088;6.572;2023-05-28T04:29:31;16.20;99.90
28075;DHT22;15385;51.088;6.572;2023-05-28T04:32:02;16.20;99.90
28075;DHT22;15385;51.088;6.572;2023-05-28T04:34:34;16.20;99.90
28075;DHT22;15385;51.088;6.572;2023-05-28T04:37:05;16.30;99.90
28075;DHT22;15385;51.088;6.572;2023-05-28T04:39:36;16.30;99.90
28075;DHT22;15385;51.088;6.572;2023-05-28T04:42:08;16.30;99.90
28075;DHT22;15385;51.088;6.572;2023-05-28T04:44:39;16.30;99.90
28075;DHT22;15385;51.088;6.572;2023-05-28T04:47:10;16.30;99.90
28075;DHT22;15385;51.088;6.572;2023-05-28T04:49:42;16.30;99.90
28075;DHT22;15385;51.088;6.572;2023-05-28T04:52:13;16.30;99.90
28075;DHT22;15385;51.088;6.572;2023-05-28T04:54:45;16.40;99.90
28075;DHT22;15385;51.088;6.572;2023-05-28T04:57:16;16.50;99.90
28075;DHT22;15385;51.088;6.572;2023-05-28T04:59:47;16.50;99.90
28075;DHT22;15385;51.088;6.572;2023-05-28T05:02:18;16.70;99.90
28075;DHT22;15385;51.088;6.572;2023-05-28T05:04:49;16.60;99.90
28075;DHT22;15385;51.088;6.572;2023-05-28T05:07:21;16.70;99.90
28075;DHT22;15385;51.088;6.572;2023-05-28T05:09:52;16.70;99.90
28075;DHT22;15385;51.088;6.572;2023-05-28T05:12:23;16.80;99.90
28075;DHT22;15385;51.088;6.572;2023-05-28T05:14:53;16.80;99.90
28075;DHT22;15385;51.088;6.572;2023-05-28T05:17:24;16.90;99.90
28075;DHT22;15385;51.088;6.572;2023-05-28T05:19:55;16.90;99.90
28075;DHT22;15385;51.088;6.572;2023-05-28T05:22:25;16.90;99.90
28075;DHT22;15385;51.088;6.572;2023-05-28T05:24:56;17.00;99.90
28075;DHT22;15385;51.088;6.572;2023-05-28T05:27:26;17.10;99.90
28075;DHT22;15385;51.088;6.572;2023-05-28T05:29:58;17.10;99.90
28075;DHT22;15385;51.088;6.572;2023-05-28T05:32:29;17.20;99.90
28075;DHT22;15385;51.088;6.572;2023-05-28T05:34:59;17.30;99.90
28075;DHT22;15385;51.088;6.572;2023-05-28T05:37:30;17.40;99.90
28075;DHT22;15385;51.088;6.572;2023-05-28T05:40:01;17.40;99.90
28075;DHT22;15385;51.088;6.572;2023-05-28T05:42:31;17.50;99.90
28075;DHT22;15385;51.088;6.572;2023-05-28T05:45:02;17.60;99.90
28075;DHT22;15385;51.088;6.572;2023-05-28T05:47:33;17.60;99.90
28075;DHT22;15385;51.088;6.572;2023-05-28T05:50:04;17.70;99.90
28075;DHT22;15385;51.088;6.572;2023-05-28T05:52:35;17.80;99.90
28075;DHT22;15385;51.088;6.572;2023-05-28T05:55:06;17.90;99.90
28075;DHT22;15385;51.088;6.572;2023-05-28T05:57:37;18.10;99.90
28075;DHT22;15385;51.088;6.572;2023-05-28T06:00:08;18.20;99.90
28075;DHT22;15385;51.088;6.572;2023-05-28T06:02:40;18.30;99.90
28075;DHT22;15385;51.088;6.572;2023-05-28T06:05:11;18.40;99.90
28075;DHT22;15385;51.088;6.572;2023-05-28T06:07:43;18.50;99.90
28075;DHT22;15385;51.088;6.572;2023-05-28T06:10:13;18.60;99.90
28075;DHT22;15385;51.088;6.572;2023-05-28T06:12:44;18.70;99.90
28075;DHT22;15385;51.088;6.572;2023-05-28T06:15:15;18.70;99.90
28075;DHT22;15385;51.088;6.572;2023-05-28T06:17:46;18.70;99.90
28075;DHT22;15385;51.088;6.572;2023-05-28T06:20:16;18.90;99.90
28075;DHT22;15385;51.088;6.572;2023-05-28T06:22:50;19.00;99.90
28075;DHT22;15385;51.088;6.572;2023-05-28T06:25:20;19.10;99.90
28075;DHT22;15385;51.088;6.572;2023-05-28T06:27:51;19.20;99.90
28075;DHT22;15385;51.088;6.572;2023-05-28T06:30:22;19.30;99.90
28075;DHT22;15385;51.088;6.572;2023-05-28T06:32:53;19.30;99.90
28075;DHT22;15385;51.088;6.572;2023-05-28T06:35:24;19.40;99.90
28075;DHT22;15385;51.088;6.572;2023-05-28T06:37:54;19.50;99.90
28075;DHT22;15385;51.088;6.572;2023-05-28T06:40:25;19.70;99.90
28075;DHT22;15385;51.088;6.572;2023-05-28T06:42:55;19.80;99.90
28075;DHT22;15385;51.088;6.572;2023-05-28T06:45:26;19.80;99.90
28075;DHT22;15385;51.088;6.572;2023-05-28T06:47:57;19.90;99.90
28075;DHT22;15385;51.088;6.572;2023-05-28T06:50:27;20.10;99.90
28075;DHT22;15385;51.088;6.572;2023-05-28T06:52:58;20.20;99.90
28075;DHT22;15385;51.088;6.572;2023-05-28T06:55:29;20.30;99.90
28075;DHT22;15385;51.088;6.572;2023-05-28T06:57:59;20.30;99.90
28075;DHT22;15385;51.088;6.572;2023-05-28T07:00:30;20.40;99.90
28075;DHT22;15385;51.088;6.572;2023-05-28T07:03:00;20.40;99.90
28075;DHT22;15385;51.088;6.572;2023-05-28T07:05:31;20.50;99.90
28075;DHT22;15385;51.088;6.572;2023-05-28T07:08:02;20.60;99.90
28075;DHT22;15385;51.088;6.572;2023-05-28T07:10:32;20.80;99.90
28075;DHT22;15385;51.088;6.572;2023-05-28T07:13:03;20.90;99.90
28075;DHT22;15385;51.088;6.572;2023-05-28T07:15:34;20.90;99.90
28075;DHT22;15385;51.088;6.572;2023-05-28T07:18:04;21.00;99.90
28075;DHT22;15385;51.088;6.572;2023-05-28T07:20:35;21.00;99.90
28075;DHT22;15385;51.088;6.572;2023-05-28T07:23:05;21.10;99.90
28075;DHT22;15385;51.088;6.572;2023-05-28T07:25:37;21.20;99.90
28075;DHT22;15385;51.088;6.572;2023-05-28T07:28:08;21.40;99.90
28075;DHT22;15385;51.088;6.572;2023-05-28T07:30:40;21.50;99.90
28075;DHT22;15385;51.088;6.572;2023-05-28T07:33:11;21.70;99.90
28075;DHT22;15385;51.088;6.572;2023-05-28T07:35:41;21.80;99.90
28075;DHT22;15385;51.088;6.572;2023-05-28T07:38:12;22.00;99.90
28075;DHT22;15385;51.088;6.572;2023-05-28T07:40:44;22.00;99.90
28075;DHT22;15385;51.088;6.572;2023-05-28T07:43:15;22.20;99.90
28075;DHT22;15385;51.088;6.572;2023-05-28T07:45:46;22.40;99.90
28075;DHT22;15385;51.088;6.572;2023-05-28T07:48:16;22.60;99.90
28075;DHT22;15385;51.088;6.572;2023-05-28T07:50:47;22.70;99.90
28075;DHT22;15385;51.088;6.572;2023-05-28T07:53:18;22.80;99.90
28075;DHT22;15385;51.088;6.572;2023-05-28T07:55:49;23.00;99.90
28075;DHT22;15385;51.088;6.572;2023-05-28T07:58:19;23.00;99.90
28075;DHT22;15385;51.088;6.572;2023-05-28T08:00:50;23.20;99.90
28075;DHT22;15385;51.088;6.572;2023-05-28T08:03:21;23.20;99.90
28075;DHT22;15385;51.088;6.572;2023-05-28T08:05:54;23.10;99.90
28075;DHT22;15385;51.088;6.572;2023-05-28T08:08:25;23.10;99.90
28075;DHT22;15385;51.088;6.572;2023-05-28T08:10:56;23.20;99.90
28075;DHT22;15385;51.088;6.572;2023-05-28T08:13:26;23.30;99.90
28075;DHT22;15385;51.088;6.572;2023-05-28T08:15:58;23.50;99.90
28075;DHT22;15385;51.088;6.572;2023-05-28T08:18:29;23.40;99.90
28075;DHT22;15385;51.088;6.572;2023-05-28T08:21:00;23.50;99.90
28075;DHT22;15385;51.088;6.572;2023-05-28T08:23:31;23.70;99.90
28075;DHT22;15385;51.088;6.572;2023-05-28T08:26:04;23.80;99.90
28075;DHT22;15385;51.088;6.572;2023-05-28T08:28:36;23.90;99.90
28075;DHT22;15385;51.088;6.572;2023-05-28T08:31:06;24.00;99.90
28075;DHT22;15385;51.088;6.572;2023-05-28T08:33:37;24.10;99.90
28075;DHT22;15385;51.088;6.572;2023-05-28T08:36:07;24.10;99.90
28075;DHT22;15385;51.088;6.572;2023-05-28T08:38:38;24.20;99.90
28075;DHT22;15385;51.088;6.572;2023-05-28T08:41:09;24.30;99.90
28075;DHT22;15385;51.088;6.572;2023-05-28T08:43:40;24.20;99.90
28075;DHT22;15385;51.088;6.572;2023-05-28T08:46:11;24.40;99.90
28075;DHT22;15385;51.088;6.572;2023-05-28T08:48:42;24.50;99.90
28075;DHT22;15385;51.088;6.572;2023-05-28T08:51:13;24.80;99.90
28075;DHT22;15385;51.088;6.572;2023-05-28T08:53:47;24.90;99.90
28075;DHT22;15385;51.088;6.572;2023-05-28T08:56:17;24.80;99.90
28075;DHT22;15385;51.088;6.572;2023-05-28T08:58:50;24.90;99.90
28075;DHT22;15385;51.088;6.572;2023-05-28T09:01:20;25.20;99.90
28075;DHT22;15385;51.088;6.572;2023-05-28T09:03:51;25.20;99.90
28075;DHT22;15385;51.088;6.572;2023-05-28T09:06:22;25.20;99.90
28075;DHT22;15385;51.088;6.572;2023-05-28T09:08:55;25.20;99.90
28075;DHT22;15385;51.088;6.572;2023-05-28T09:11:26;25.20;99.90
28075;DHT22;15385;51.088;6.572;2023-05-28T09:13:56;25.20;99.90
28075;DHT22;15385;51.088;6.572;2023-05-28T09:16:27;25.40;99.90
28075;DHT22;15385;51.088;6.572;2023-05-28T09:19:04;25.30;99.90
28075;DHT22;15385;51.088;6.572;2023-05-28T09:21:35;25.30;99.90
28075;DHT22;15385;51.088;6.572;2023-05-28T09:24:09;25.30;99.90
28075;DHT22;15385;51.088;6.572;2023-05-28T09:26:39;25.50;99.90
28075;DHT22;15385;51.088;6.572;2023-05-28T09:29:13;25.60;99.90
28075;DHT22;15385;51.088;6.572;2023-05-28T09:31:44;25.60;99.90
28075;DHT22;15385;51.088;6.572;2023-05-28T09:34:18;25.70;99.90
28075;DHT22;15385;51.088;6.572;2023-05-28T09:36:51;25.80;99.90
28075;DHT22;15385;51.088;6.572;2023-05-28T09:39:24;25.90;99.90
28075;DHT22;15385;51.088;6.572;2023-05-28T09:44:40;26.00;99.90
28075;DHT22;15385;51.088;6.572;2023-05-28T09:47:17;25.70;99.80
28075;DHT22;15385;51.088;6.572;2023-05-28T09:49:48;25.80;99.50
28075;DHT22;15385;51.088;6.572;2023-05-28T09:52:21;26.00;99.60
28075;DHT22;15385;51.088;6.572;2023-05-28T09:54:53;26.30;99.60
28075;DHT22;15385;51.088;6.572;2023-05-28T09:57:30;26.50;99.90
28075;DHT22;15385;51.088;6.572;2023-05-28T10:00:03;26.60;98.70
28075;DHT22;15385;51.088;6.572;2023-05-28T10:05:44;26.80;98.10
28075;DHT22;15385;51.088;6.572;2023-05-28T10:08:16;26.90;98.00
28075;DHT22;15385;51.088;6.572;2023-05-28T10:10:51;27.20;98.20
28075;DHT22;15385;51.088;6.572;2023-05-28T10:13:22;27.20;97.80
28075;DHT22;15385;51.088;6.572;2023-05-28T10:15:53;27.30;97.90
28075;DHT22;15385;51.088;6.572;2023-05-28T10:18:25;27.30;97.80
28075;DHT22;15385;51.088;6.572;2023-05-28T10:20:58;27.00;97.00
28075;DHT22;15385;51.088;6.572;2023-05-28T10:23:28;27.00;96.60
28075;DHT22;15385;51.088;6.572;2023-05-28T10:25:59;27.10;97.10
28075;DHT22;15385;51.088;6.572;2023-05-28T10:28:30;27.20;97.10
28075;DHT22;15385;51.088;6.572;2023-05-28T10:31:06;27.40;97.00
28075;DHT22;15385;51.088;6.572;2023-05-28T10:33:39;27.40;96.60
28075;DHT22;15385;51.088;6.572;2023-05-28T10:36:11;27.60;96.40
28075;DHT22;15385;51.088;6.572;2023-05-28T10:41:23;27.80;96.10
28075;DHT22;15385;51.088;6.572;2023-05-28T10:43:54;27.80;95.60
28075;DHT22;15385;51.088;6.572;2023-05-28T10:46:36;27.80;95.00
28075;DHT22;15385;51.088;6.572;2023-05-28T10:49:15;27.90;94.40
28075;DHT22;15385;51.088;6.572;2023-05-28T10:51:57;27.80;92.90
28075;DHT22;15385;51.088;6.572;2023-05-28T10:57:19;27.90;93.00
28075;DHT22;15385;51.088;6.572;2023-05-28T11:00:00;28.00;92.90
28075;DHT22;15385;51.088;6.572;2023-05-28T11:02:52;27.90;93.10
28075;DHT22;15385;51.088;6.572;2023-05-28T11:05:25;28.00;92.80
28075;DHT22;15385;51.088;6.572;2023-05-28T11:07:58;28.00;92.70
28075;DHT22;15385;51.088;6.572;2023-05-28T11:10:28;28.00;92.50
28075;DHT22;15385;51.088;6.572;2023-05-28T11:12:59;27.90;91.90
28075;DHT22;15385;51.088;6.572;2023-05-28T11:15:30;27.90;92.30
28075;DHT22;15385;51.088;6.572;2023-05-28T11:18:01;28.00;90.30
28075;DHT22;15385;51.088;6.572;2023-05-28T11:20:31;27.90;88.80
28075;DHT22;15385;51.088;6.572;2023-05-28T11:23:14;28.00;88.20
28075;DHT22;15385;51.088;6.572;2023-05-28T11:25:46;28.00;89.90
28075;DHT22;15385;51.088;6.572;2023-05-28T11:28:18;28.10;90.60
28075;DHT22;15385;51.088;6.572;2023-05-28T11:30:51;28.20;91.00
28075;DHT22;15385;51.088;6.572;2023-05-28T11:33:22;28.40;90.70
28075;DHT22;15385;51.088;6.572;2023-05-28T11:35:59;28.50;90.70
28075;DHT22;15385;51.088;6.572;2023-05-28T11:38:31;28.80;91.10
28075;DHT22;15385;51.088;6.572;2023-05-28T11:41:02;28.90;90.20
28075;DHT22;15385;51.088;6.572;2023-05-28T11:43:32;28.90;88.30
28075;DHT22;15385;51.088;6.572;2023-05-28T11:46:05;28.90;84.80
28075;DHT22;15385;51.088;6.572;2023-05-28T11:48:37;28.70;84.80
28075;DHT22;15385;51.088;6.572;2023-05-28T11:51:08;28.90;86.20
28075;DHT22;15385;51.088;6.572;2023-05-28T11:53:43;29.10;85.20
28075;DHT22;15385;51.088;6.572;2023-05-28T11:56:14;29.10;84.10
28075;DHT22;15385;51.088;6.572;2023-05-28T11:58:45;29.10;86.00
28075;DHT22;15385;51.088;6.572;2023-05-28T12:01:18;28.90;85.50
28075;DHT22;15385;51.088;6.572;2023-05-28T12:03:49;28.60;84.00
28075;DHT22;15385;51.088;6.572;2023-05-28T12:06:19;28.50;86.20
28075;DHT22;15385;51.088;6.572;2023-05-28T12:08:51;28.30;87.70
28075;DHT22;15385;51.088;6.572;2023-05-28T12:11:25;28.40;88.70
28075;DHT22;15385;51.088;6.572;2023-05-28T12:13:57;28.60;87.70
28075;DHT22;15385;51.088;6.572;2023-05-28T12:16:30;28.70;87.30
28075;DHT22;15385;51.088;6.572;2023-05-28T12:19:01;29.00;86.30
28075;DHT22;15385;51.088;6.572;2023-05-28T12:21:34;29.00;82.80
28075;DHT22;15385;51.088;6.572;2023-05-28T12:24:13;29.20;83.20
28075;DHT22;15385;51.088;6.572;2023-05-28T12:26:44;29.40;83.30
28075;DHT22;15385;51.088;6.572;2023-05-28T12:29:14;29.50;83.30
28075;DHT22;15385;51.088;6.572;2023-05-28T12:31:45;29.80;83.00
28075;DHT22;15385;51.088;6.572;2023-05-28T12:34:16;30.00;80.80
28075;DHT22;15385;51.088;6.572;2023-05-28T12:36:46;29.70;79.60
28075;DHT22;15385;51.088;6.572;2023-05-28T12:39:17;29.60;80.60
28075;DHT22;15385;51.088;6.572;2023-05-28T12:41:47;29.50;80.70
28075;DHT22;15385;51.088;6.572;2023-05-28T12:44:18;29.50;80.40
28075;DHT22;15385;51.088;6.572;2023-05-28T12:46:49;29.50;80.60
28075;DHT22;15385;51.088;6.572;2023-05-28T12:49:21;29.20;79.00
28075;DHT22;15385;51.088;6.572;2023-05-28T12:51:51;29.10;78.70
28075;DHT22;15385;51.088;6.572;2023-05-28T12:54:22;29.00;80.00
28075;DHT22;15385;51.088;6.572;2023-05-28T12:56:53;29.00;81.50
28075;DHT22;15385;51.088;6.572;2023-05-28T12:59:25;29.00;81.50
28075;DHT22;15385;51.088;6.572;2023-05-28T13:01:56;28.90;82.50
28075;DHT22;15385;51.088;6.572;2023-05-28T13:04:26;28.90;82.00
28075;DHT22;15385;51.088;6.572;2023-05-28T13:06:57;28.80;82.50
28075;DHT22;15385;51.088;6.572;2023-05-28T13:09:28;28.90;82.60
28075;DHT22;15385;51.088;6.572;2023-05-28T13:11:59;28.90;81.90
28075;DHT22;15385;51.088;6.572;2023-05-28T13:14:31;29.00;81.00
28075;DHT22;15385;51.088;6.572;2023-05-28T13:17:02;28.90;81.70
28075;DHT22;15385;51.088;6.572;2023-05-28T13:19:32;28.90;80.60
28075;DHT22;15385;51.088;6.572;2023-05-28T13:22:03;28.90;80.50
28075;DHT22;15385;51.088;6.572;2023-05-28T13:24:34;28.90;80.40
28075;DHT22;15385;51.088;6.572;2023-05-28T13:27:05;28.80;80.00
28075;DHT22;15385;51.088;6.572;2023-05-28T13:29:37;28.70;79.10
28075;DHT22;15385;51.088;6.572;2023-05-28T13:32:08;28.70;79.70
28075;DHT22;15385;51.088;6.572;2023-05-28T13:34:39;28.70;80.40
28075;DHT22;15385;51.088;6.572;2023-05-28T13:37:10;28.50;80.70
28075;DHT22;15385;51.088;6.572;2023-05-28T13:39:40;28.50;81.40
28075;DHT22;15385;51.088;6.572;2023-05-28T13:42:11;28.40;81.10
28075;DHT22;15385;51.088;6.572;2023-05-28T13:44:42;28.50;81.40
28075;DHT22;15385;51.088;6.572;2023-05-28T13:47:13;28.40;80.70
28075;DHT22;15385;51.088;6.572;2023-05-28T13:49:44;28.50;81.00
28075;DHT22;15385;51.088;6.572;2023-05-28T13:52:14;28.70;80.00
28075;DHT22;15385;51.088;6.572;2023-05-28T13:54:45;28.70;78.00
28075;DHT22;15385;51.088;6.572;2023-05-28T13:57:16;28.80;79.40
28075;DHT22;15385;51.088;6.572;2023-05-28T13:59:49;29.10;78.20
28075;DHT22;15385;51.088;6.572;2023-05-28T14:02:20;29.10;77.80
28075;DHT22;15385;51.088;6.572;2023-05-28T14:04:51;29.10;75.80
28075;DHT22;15385;51.088;6.572;2023-05-28T14:07:21;29.10;76.00
28075;DHT22;15385;51.088;6.572;2023-05-28T14:09:52;29.10;78.20
28075;DHT22;15385;51.088;6.572;2023-05-28T14:12:22;29.10;78.60
28075;DHT22;15385;51.088;6.572;2023-05-28T14:14:53;29.10;77.60
28075;DHT22;15385;51.088;6.572;2023-05-28T14:17:24;28.80;78.20
28075;DHT22;15385;51.088;6.572;2023-05-28T14:19:54;28.70;77.30
28075;DHT22;15385;51.088;6.572;2023-05-28T14:22:25;28.50;78.10
28075;DHT22;15385;51.088;6.572;2023-05-28T14:24:56;28.40;77.20
28075;DHT22;15385;51.088;6.572;2023-05-28T14:27:27;28.30;77.30
28075;DHT22;15385;51.088;6.572;2023-05-28T14:29:57;28.40;76.60
28075;DHT22;15385;51.088;6.572;2023-05-28T14:32:28;28.50;77.00
28075;DHT22;15385;51.088;6.572;2023-05-28T14:34:59;28.50;77.40
28075;DHT22;15385;51.088;6.572;2023-05-28T14:37:31;28.60;78.80
28075;DHT22;15385;51.088;6.572;2023-05-28T14:40:01;28.60;78.80
28075;DHT22;15385;51.088;6.572;2023-05-28T14:42:32;28.50;79.30
28075;DHT22;15385;51.088;6.572;2023-05-28T14:45:03;28.60;79.60
28075;DHT22;15385;51.088;6.572;2023-05-28T14:47:33;28.60;79.70
28075;DHT22;15385;51.088;6.572;2023-05-28T14:50:06;28.60;79.20
28075;DHT22;15385;51.088;6.572;2023-05-28T14:52:37;28.60;79.10
28075;DHT22;15385;51.088;6.572;2023-05-28T14:55:08;28.50;79.30
28075;DHT22;15385;51.088;6.572;2023-05-28T14:57:39;28.40;77.50
28075;DHT22;15385;51.088;6.572;2023-05-28T15:00:10;28.30;77.10
28075;DHT22;15385;51.088;6.572;2023-05-28T15:02:41;28.20;77.20
28075;DHT22;15385;51.088;6.572;2023-05-28T15:05:12;28.20;78.70
28075;DHT22;15385;51.088;6.572;2023-05-28T15:07:43;28.20;79.60
28075;DHT22;15385;51.088;6.572;2023-05-28T15:10:13;28.10;79.90
28075;DHT22;15385;51.088;6.572;2023-05-28T15:12:44;28.00;80.60
28075;DHT22;15385;51.088;6.572;2023-05-28T15:15:16;28.10;80.70
28075;DHT22;15385;51.088;6.572;2023-05-28T15:17:47;28.10;80.60
28075;DHT22;15385;51.088;6.572;2023-05-28T15:20:18;28.00;81.10
28075;DHT22;15385;51.088;6.572;2023-05-28T15:22:48;28.10;81.40
28075;DHT22;15385;51.088;6.572;2023-05-28T15:25:19;27.90;80.60
28075;DHT22;15385;51.088;6.572;2023-05-28T15:27:52;27.90;79.80
28075;DHT22;15385;51.088;6.572;2023-05-28T15:30:23;27.80;79.50
28075;DHT22;15385;51.088;6.572;2023-05-28T15:32:55;27.80;79.00
28075;DHT22;15385;51.088;6.572;2023-05-28T15:35:28;27.80;79.60
28075;DHT22;15385;51.088;6.572;2023-05-28T15:37:59;27.80;79.30
28075;DHT22;15385;51.088;6.572;2023-05-28T15:40:29;27.60;79.60
28075;DHT22;15385;51.088;6.572;2023-05-28T15:43:02;27.50;79.80
28075;DHT22;15385;51.088;6.572;2023-05-28T15:45:35;27.40;79.30
28075;DHT22;15385;51.088;6.572;2023-05-28T15:48:05;27.40;79.40
28075;DHT22;15385;51.088;6.572;2023-05-28T15:50:36;27.30;79.70
28075;DHT22;15385;51.088;6.572;2023-05-28T15:53:07;27.40;79.90
28075;DHT22;15385;51.088;6.572;2023-05-28T15:55:37;27.30;79.90
28075;DHT22;15385;51.088;6.572;2023-05-28T15:58:08;27.40;80.20
28075;DHT22;15385;51.088;6.572;2023-05-28T16:00:40;27.40;80.10
28075;DHT22;15385;51.088;6.572;2023-05-28T16:03:13;27.40;79.90
28075;DHT22;15385;51.088;6.572;2023-05-28T16:05:44;27.40;79.40
28075;DHT22;15385;51.088;6.572;2023-05-28T16:08:15;27.30;79.70